sensor_id;sensor_type;location;lat;lon;timestamp;temperature;humidity
46976;DHT22;32724;51.094;6.996;2023-04-25T00:00:15;4.80;99.90
46976;DHT22;32724;51.094;6.996;2023-04-25T00:02:41;4.70;99.90
46976;DHT22;32724;51.094;6.996;2023-04-25T00:05:07;4.60;99.90
46976;DHT22;32724;51.094;6.996;2023-04-25T00:07:33;4.50;99.90
46976;DHT22;32724;51.094;6.996;2023-04-25T00:09:59;4.40;99.90
46976;DHT22;32724;51.094;6.996;2023-04-25T00:12:24;4.30;99.90
46976;DHT22;32724;51.094;6.996;2023-04-25T00:14:50;4.20;99.90
46976;DHT22;32724;51.094;6.996;2023-04-25T00:17:16;4.10;99.90
46976;DHT22;32724;51.094;6.996;2023-04-25T00:19:42;4.00;99.90
46976;DHT22;32724;51.094;6.996;2023-04-25T00:22:10;4.00;99.90
46976;DHT22;32724;51.094;6.996;2023-04-25T00:24:36;4.00;99.90
46976;DHT22;32724;51.094;6.996;2023-04-25T00:27:01;3.90;99.90
46976;DHT22;32724;51.094;6.996;2023-04-25T00:29:26;3.80;99.90
46976;DHT22;32724;51.094;6.996;2023-04-25T00:31:52;3.90;99.90
46976;DHT22;32724;51.094;6.996;2023-04-25T00:34:17;3.80;99.90
46976;DHT22;32724;51.094;6.996;2023-04-25T00:36:43;3.90;99.90
46976;DHT22;32724;51.094;6.996;2023-04-25T00:39:08;4.00;99.90
46976;DHT22;32724;51.094;6.996;2023-04-25T00:41:34;4.00;99.90
46976;DHT22;32724;51.094;6.996;2023-04-25T00:44:00;4.20;99.90
46976;DHT22;32724;51.094;6.996;2023-04-25T00:46:25;4.30;99.90
46976;DHT22;32724;51.094;6.996;2023-04-25T00:48:51;4.30;99.90
46976;DHT22;32724;51.094;6.996;2023-04-25T00:51:19;4.30;99.90
46976;DHT22;32724;51.094;6.996;2023-04-25T00:53:44;4.40;99.90
46976;DHT22;32724;51.094;6.996;2023-04-25T00:56:10;4.50;99.90
46976;DHT22;32724;51.094;6.996;2023-04-25T00:58:36;4.50;99.90
46976;DHT22;32724;51.094;6.996;2023-04-25T01:01:02;4.50;99.90
46976;DHT22;32724;51.094;6.996;2023-04-25T01:03:28;4.50;99.90
46976;DHT22;32724;51.094;6.996;2023-04-25T01:05:54;4.60;99.90
46976;DHT22;32724;51.094;6.996;2023-04-25T01:08:21;4.60;99.90
46976;DHT22;32724;51.094;6.996;2023-04-25T01:10:48;4.60;99.90
46976;DHT22;32724;51.094;6.996;2023-04-25T01:13:14;4.70;99.90
46976;DHT22;32724;51.094;6.996;2023-04-25T01:15:39;4.80;99.90
46976;DHT22;32724;51.094;6.996;2023-04-25T01:18:05;4.90;99.90
46976;DHT22;32724;51.094;6.996;2023-04-25T01:20:31;5.10;99.90
46976;DHT22;32724;51.094;6.996;2023-04-25T01:22:57;5.30;99.90
46976;DHT22;32724;51.094;6.996;2023-04-25T01:25:23;5.40;99.90
46976;DHT22;32724;51.094;6.996;2023-04-25T01:27:48;5.60;99.90
46976;DHT22;32724;51.094;6.996;2023-04-25T01:30:13;5.70;99.90
46976;DHT22;32724;51.094;6.996;2023-04-25T01:32:39;5.80;99.90
46976;DHT22;32724;51.094;6.996;2023-04-25T01:35:08;5.80;99.90
46976;DHT22;32724;51.094;6.996;2023-04-25T01:37:37;5.70;99.90
46976;DHT22;32724;51.094;6.996;2023-04-25T01:40:03;5.80;99.90
46976;DHT22;32724;51.094;6.996;2023-04-25T01:42:31;5.80;99.90
46976;DHT22;32724;51.094;6.996;2023-04-25T01:44:56;5.90;99.90
46976;DHT22;32724;51.094;6.996;2023-04-25T01:47:22;5.90;99.90
46976;DHT22;32724;51.094;6.996;2023-04-25T01:49:47;5.90;99.90
46976;DHT22;32724;51.094;6.996;2023-04-25T01:52:13;5.90;99.90
46976;DHT22;32724;51.094;6.996;2023-04-25T01:54:38;6.00;99.90
46976;DHT22;32724;51.094;6.996;2023-04-25T01:57:09;6.10;99.90
46976;DHT22;32724;51.094;6.996;2023-04-25T01:59:35;6.20;99.90
46976;DHT22;32724;51.094;6.996;2023-04-25T02:02:00;6.20;99.90
46976;DHT22;32724;51.094;6.996;2023-04-25T02:04:31;6.30;99.90
46976;DHT22;32724;51.094;6.996;2023-04-25T02:06:57;6.20;99.90
46976;DHT22;32724;51.094;6.996;2023-04-25T02:09:23;6.10;99.90
46976;DHT22;32724;51.094;6.996;2023-04-25T02:11:48;5.90;99.90
46976;DHT22;32724;51.094;6.996;2023-04-25T02:14:14;5.90;99.90
46976;DHT22;32724;51.094;6.996;2023-04-25T02:16:39;5.60;99.90
46976;DHT22;32724;51.094;6.996;2023-04-25T02:19:05;5.50;99.90
46976;DHT22;32724;51.094;6.996;2023-04-25T02:21:31;5.50;99.90
46976;DHT22;32724;51.094;6.996;2023-04-25T02:23:57;5.60;99.90
46976;DHT22;32724;51.094;6.996;2023-04-25T02:26:22;5.60;99.90
46976;DHT22;32724;51.094;6.996;2023-04-25T02:28:49;5.70;99.90
46976;DHT22;32724;51.094;6.996;2023-04-25T02:31:15;5.80;99.90
46976;DHT22;32724;51.094;6.996;2023-04-25T02:33:41;5.90;99.90
46976;DHT22;32724;51.094;6.996;2023-04-25T02:36:06;5.90;99.90
46976;DHT22;32724;51.094;6.996;2023-04-25T02:38:32;5.90;99.90
46976;DHT22;32724;51.094;6.996;2023-04-25T02:40:57;5.90;99.90
46976;DHT22;32724;51.094;6.996;2023-04-25T02:43:23;5.90;99.90
46976;DHT22;32724;51.094;6.996;2023-04-25T02:45:48;5.80;99.90
46976;DHT22;32724;51.094;6.996;2023-04-25T02:48:14;5.90;99.90
46976;DHT22;32724;51.094;6.996;2023-04-25T02:50:39;6.00;99.90
46976;DHT22;32724;51.094;6.996;2023-04-25T02:53:05;6.10;99.90
46976;DHT22;32724;51.094;6.996;2023-04-25T02:55:30;5.80;99.90
46976;DHT22;32724;51.094;6.996;2023-04-25T02:57:56;5.80;99.90
46976;DHT22;32724;51.094;6.996;2023-04-25T03:00:21;5.80;99.90
46976;DHT22;32724;51.094;6.996;2023-04-25T03:02:47;5.70;99.90
46976;DHT22;32724;51.094;6.996;2023-04-25T03:05:13;5.70;99.90
46976;DHT22;32724;51.094;6.996;2023-04-25T03:07:38;5.70;99.90
46976;DHT22;32724;51.094;6.996;2023-04-25T03:10:05;5.80;99.90
46976;DHT22;32724;51.094;6.996;2023-04-25T03:12:31;5.80;99.90
46976;DHT22;32724;51.094;6.996;2023-04-25T03:14:57;5.80;99.90
46976;DHT22;32724;51.094;6.996;2023-04-25T03:17:22;5.80;99.90
46976;DHT22;32724;51.094;6.996;2023-04-25T03:19:47;5.70;99.90
46976;DHT22;32724;51.094;6.996;2023-04-25T03:22:13;5.70;99.90
46976;DHT22;32724;51.094;6.996;2023-04-25T03:24:38;5.70;99.90
46976;DHT22;32724;51.094;6.996;2023-04-25T03:27:04;5.70;99.90
46976;DHT22;32724;51.094;6.996;2023-04-25T03:29:30;5.80;99.90
46976;DHT22;32724;51.094;6.996;2023-04-25T03:31:55;5.80;99.90
46976;DHT22;32724;51.094;6.996;2023-04-25T03:34:20;5.80;99.90
46976;DHT22;32724;51.094;6.996;2023-04-25T03:36:46;5.70;99.90
46976;DHT22;32724;51.094;6.996;2023-04-25T03:39:12;5.70;99.90
46976;DHT22;32724;51.094;6.996;2023-04-25T03:41:38;5.70;99.90
46976;DHT22;32724;51.094;6.996;2023-04-25T03:44:03;5.70;99.90
46976;DHT22;32724;51.094;6.996;2023-04-25T03:46:28;5.70;99.90
46976;DHT22;32724;51.094;6.996;2023-04-25T03:48:54;5.70;99.90
46976;DHT22;32724;51.094;6.996;2023-04-25T03:51:19;5.70;99.90
46976;DHT22;32724;51.094;6.996;2023-04-25T03:53:45;5.70;99.90
46976;DHT22;32724;51.094;6.996;2023-04-25T03:56:10;5.70;99.90
46976;DHT22;32724;51.094;6.996;2023-04-25T03:58:36;5.80;99.90
46976;DHT22;32724;51.094;6.996;2023-04-25T04:01:01;5.90;99.90
46976;DHT22;32724;51.094;6.996;2023-04-25T04:03:33;5.90;99.90
46976;DHT22;32724;51.094;6.996;2023-04-25T04:05:59;5.90;99.90
46976;DHT22;32724;51.094;6.996;2023-04-25T04:08:25;6.00;99.90
46976;DHT22;32724;51.094;6.996;2023-04-25T04:10:50;6.10;99.90
46976;DHT22;32724;51.094;6.996;2023-04-25T04:13:16;6.20;99.90
46976;DHT22;32724;51.094;6.996;2023-04-25T04:15:41;6.20;99.90
46976;DHT22;32724;51.094;6.996;2023-04-25T04:18:07;6.20;99.90
46976;DHT22;32724;51.094;6.996;2023-04-25T04:20:32;6.20;99.90
46976;DHT22;32724;51.094;6.996;2023-04-25T04:22:58;6.10;99.90
46976;DHT22;32724;51.094;6.996;2023-04-25T04:25:23;6.00;99.90
46976;DHT22;32724;51.094;6.996;2023-04-25T04:27:50;6.00;99.90
46976;DHT22;32724;51.094;6.996;2023-04-25T04:30:21;6.00;99.90
46976;DHT22;32724;51.094;6.996;2023-04-25T04:32:46;6.10;99.90
46976;DHT22;32724;51.094;6.996;2023-04-25T04:35:13;6.10;99.90
46976;DHT22;32724;51.094;6.996;2023-04-25T04:37:39;6.10;99.90
46976;DHT22;32724;51.094;6.996;2023-04-25T04:40:05;6.10;99.90
46976;DHT22;32724;51.094;6.996;2023-04-25T04:42:31;6.10;99.90
46976;DHT22;32724;51.094;6.996;2023-04-25T04:44:56;6.00;99.90
46976;DHT22;32724;51.094;6.996;2023-04-25T04:47:24;6.00;99.90
46976;DHT22;32724;51.094;6.996;2023-04-25T04:49:49;6.10;99.90
46976;DHT22;32724;51.094;6.996;2023-04-25T04:52:15;6.10;99.90
46976;DHT22;32724;51.094;6.996;2023-04-25T04:54:40;6.20;99.90
46976;DHT22;32724;51.094;6.996;2023-04-25T04:57:06;6.30;99.90
46976;DHT22;32724;51.094;6.996;2023-04-25T04:59:31;6.30;99.90
46976;DHT22;32724;51.094;6.996;2023-04-25T05:01:56;6.30;99.90
46976;DHT22;32724;51.094;6.996;2023-04-25T05:04:22;6.20;99.90
46976;DHT22;32724;51.094;6.996;2023-04-25T05:06:47;6.20;99.90
46976;DHT22;32724;51.094;6.996;2023-04-25T05:09:13;6.10;99.90
46976;DHT22;32724;51.094;6.996;2023-04-25T05:11:38;6.10;99.90
46976;DHT22;32724;51.094;6.996;2023-04-25T05:14:04;6.10;99.90
46976;DHT22;32724;51.094;6.996;2023-04-25T05:16:30;6.30;99.90
46976;DHT22;32724;51.094;6.996;2023-04-25T05:18:55;6.50;99.90
46976;DHT22;32724;51.094;6.996;2023-04-25T05:21:20;6.50;99.90
46976;DHT22;32724;51.094;6.996;2023-04-25T05:23:46;6.40;99.90
46976;DHT22;32724;51.094;6.996;2023-04-25T05:26:12;6.50;99.90
46976;DHT22;32724;51.094;6.996;2023-04-25T05:28:41;6.60;99.90
46976;DHT22;32724;51.094;6.996;2023-04-25T05:31:07;6.60;99.90
46976;DHT22;32724;51.094;6.996;2023-04-25T05:33:35;6.60;99.90
46976;DHT22;32724;51.094;6.996;2023-04-25T05:36:00;6.90;99.90
46976;DHT22;32724;51.094;6.996;2023-04-25T05:38:26;7.50;99.90
46976;DHT22;32724;51.094;6.996;2023-04-25T05:40:51;8.10;99.90
46976;DHT22;32724;51.094;6.996;2023-04-25T05:43:17;8.40;99.90
46976;DHT22;32724;51.094;6.996;2023-04-25T05:45:42;8.40;99.90
46976;DHT22;32724;51.094;6.996;2023-04-25T05:48:08;8.20;99.90
46976;DHT22;32724;51.094;6.996;2023-04-25T05:50:33;8.20;99.90
46976;DHT22;32724;51.094;6.996;2023-04-25T05:52:58;8.80;99.90
46976;DHT22;32724;51.094;6.996;2023-04-25T05:55:24;9.40;99.90
46976;DHT22;32724;51.094;6.996;2023-04-25T05:57:49;9.70;99.90
46976;DHT22;32724;51.094;6.996;2023-04-25T06:00:15;9.40;99.90
46976;DHT22;32724;51.094;6.996;2023-04-25T06:02:41;9.60;99.90
46976;DHT22;32724;51.094;6.996;2023-04-25T06:05:07;9.70;99.90
46976;DHT22;32724;51.094;6.996;2023-04-25T06:07:33;9.80;99.90
46976;DHT22;32724;51.094;6.996;2023-04-25T06:09:58;9.70;99.90
46976;DHT22;32724;51.094;6.996;2023-04-25T06:12:25;10.00;99.90
46976;DHT22;32724;51.094;6.996;2023-04-25T06:14:50;11.10;99.90
46976;DHT22;32724;51.094;6.996;2023-04-25T06:17:16;11.00;99.90
46976;DHT22;32724;51.094;6.996;2023-04-25T06:19:41;10.30;99.90
46976;DHT22;32724;51.094;6.996;2023-04-25T06:22:07;9.80;99.90
46976;DHT22;32724;51.094;6.996;2023-04-25T06:24:32;9.20;99.90
46976;DHT22;32724;51.094;6.996;2023-04-25T06:26:58;8.90;99.90
46976;DHT22;32724;51.094;6.996;2023-04-25T06:29:23;8.80;99.90
46976;DHT22;32724;51.094;6.996;2023-04-25T06:31:48;8.60;99.90
46976;DHT22;32724;51.094;6.996;2023-04-25T06:34:15;8.20;99.90
46976;DHT22;32724;51.094;6.996;2023-04-25T06:36:40;7.80;99.90
46976;DHT22;32724;51.094;6.996;2023-04-25T06:39:06;7.80;99.90
46976;DHT22;32724;51.094;6.996;2023-04-25T06:41:32;7.90;99.90
46976;DHT22;32724;51.094;6.996;2023-04-25T06:43:57;8.00;99.90
46976;DHT22;32724;51.094;6.996;2023-04-25T06:46:23;8.10;99.90
46976;DHT22;32724;51.094;6.996;2023-04-25T06:48:48;7.90;99.90
46976;DHT22;32724;51.094;6.996;2023-04-25T06:51:14;7.80;99.90
46976;DHT22;32724;51.094;6.996;2023-04-25T06:53:39;7.90;99.90
46976;DHT22;32724;51.094;6.996;2023-04-25T06:56:05;8.10;99.90
46976;DHT22;32724;51.094;6.996;2023-04-25T06:58:31;8.20;99.90
46976;DHT22;32724;51.094;6.996;2023-04-25T07:00:56;8.40;99.90
46976;DHT22;32724;51.094;6.996;2023-04-25T07:03:22;8.40;99.90
46976;DHT22;32724;51.094;6.996;2023-04-25T07:05:47;8.30;99.90
46976;DHT22;32724;51.094;6.996;2023-04-25T07:08:13;8.20;99.90
46976;DHT22;32724;51.094;6.996;2023-04-25T07:10:38;8.10;99.90
46976;DHT22;32724;51.094;6.996;2023-04-25T07:13:04;8.20;99.90
46976;DHT22;32724;51.094;6.996;2023-04-25T07:15:29;8.20;99.90
46976;DHT22;32724;51.094;6.996;2023-04-25T07:17:54;8.10;99.90
46976;DHT22;32724;51.094;6.996;2023-04-25T07:20:20;8.00;99.90
46976;DHT22;32724;51.094;6.996;2023-04-25T07:22:46;8.00;99.90
46976;DHT22;32724;51.094;6.996;2023-04-25T07:25:11;8.00;99.90
46976;DHT22;32724;51.094;6.996;2023-04-25T07:27:37;8.10;99.90
46976;DHT22;32724;51.094;6.996;2023-04-25T07:30:02;8.20;99.90
46976;DHT22;32724;51.094;6.996;2023-04-25T07:32:29;8.50;99.90
46976;DHT22;32724;51.094;6.996;2023-04-25T07:34:55;8.40;99.90
46976;DHT22;32724;51.094;6.996;2023-04-25T07:37:20;8.60;99.90
46976;DHT22;32724;51.094;6.996;2023-04-25T07:39:45;9.10;99.90
46976;DHT22;32724;51.094;6.996;2023-04-25T07:42:12;9.50;99.90
46976;DHT22;32724;51.094;6.996;2023-04-25T07:44:37;9.70;99.90
46976;DHT22;32724;51.094;6.996;2023-04-25T07:47:05;9.90;99.90
46976;DHT22;32724;51.094;6.996;2023-04-25T07:49:32;10.00;99.90
46976;DHT22;32724;51.094;6.996;2023-04-25T07:51:58;10.00;99.90
46976;DHT22;32724;51.094;6.996;2023-04-25T07:54:23;10.00;99.90
46976;DHT22;32724;51.094;6.996;2023-04-25T07:56:48;10.20;99.90
46976;DHT22;32724;51.094;6.996;2023-04-25T07:59:14;10.30;99.90
46976;DHT22;32724;51.094;6.996;2023-04-25T08:01:40;10.40;99.90
46976;DHT22;32724;51.094;6.996;2023-04-25T08:04:05;10.60;99.90
46976;DHT22;32724;51.094;6.996;2023-04-25T08:06:31;10.40;99.90
46976;DHT22;32724;51.094;6.996;2023-04-25T08:08:56;9.50;99.90
46976;DHT22;32724;51.094;6.996;2023-04-25T08:11:22;9.10;99.90
46976;DHT22;32724;51.094;6.996;2023-04-25T08:13:47;8.90;99.90
46976;DHT22;32724;51.094;6.996;2023-04-25T08:16:12;8.60;99.90
46976;DHT22;32724;51.094;6.996;2023-04-25T08:18:38;8.50;99.90
46976;DHT22;32724;51.094;6.996;2023-04-25T08:21:03;8.30;99.90
46976;DHT22;32724;51.094;6.996;2023-04-25T08:23:29;8.20;99.90
46976;DHT22;32724;51.094;6.996;2023-04-25T08:25:54;8.30;99.90
46976;DHT22;32724;51.094;6.996;2023-04-25T08:28:20;8.30;99.90
46976;DHT22;32724;51.094;6.996;2023-04-25T08:30:45;8.30;99.90
46976;DHT22;32724;51.094;6.996;2023-04-25T08:33:11;8.30;99.90
46976;DHT22;32724;51.094;6.996;2023-04-25T08:35:37;8.40;99.90
46976;DHT22;32724;51.094;6.996;2023-04-25T08:38:03;8.50;99.90
46976;DHT22;32724;51.094;6.996;2023-04-25T08:40:28;8.60;99.90
46976;DHT22;32724;51.094;6.996;2023-04-25T08:42:56;8.70;99.90
46976;DHT22;32724;51.094;6.996;2023-04-25T08:45:22;8.80;99.90
46976;DHT22;32724;51.094;6.996;2023-04-25T08:47:47;9.10;99.90
46976;DHT22;32724;51.094;6.996;2023-04-25T08:50:16;9.40;99.90
46976;DHT22;32724;51.094;6.996;2023-04-25T08:52:44;9.70;99.90
46976;DHT22;32724;51.094;6.996;2023-04-25T08:55:13;10.00;99.90
46976;DHT22;32724;51.094;6.996;2023-04-25T08:57:40;10.40;99.90
46976;DHT22;32724;51.094;6.996;2023-04-25T09:00:08;10.90;99.90
46976;DHT22;32724;51.094;6.996;2023-04-25T09:02:34;11.10;99.90
46976;DHT22;32724;51.094;6.996;2023-04-25T09:05:01;10.40;99.90
46976;DHT22;32724;51.094;6.996;2023-04-25T09:07:27;10.10;99.90
46976;DHT22;32724;51.094;6.996;2023-04-25T09:09:53;9.80;99.90
46976;DHT22;32724;51.094;6.996;2023-04-25T09:12:19;9.50;99.90
46976;DHT22;32724;51.094;6.996;2023-04-25T09:15:00;9.30;99.90
46976;DHT22;32724;51.094;6.996;2023-04-25T09:17:26;9.10;99.90
46976;DHT22;32724;51.094;6.996;2023-04-25T09:19:51;9.20;99.90
46976;DHT22;32724;51.094;6.996;2023-04-25T09:22:17;9.20;99.90
46976;DHT22;32724;51.094;6.996;2023-04-25T09:24:44;9.40;99.90
46976;DHT22;32724;51.094;6.996;2023-04-25T09:27:17;9.80;99.90
46976;DHT22;32724;51.094;6.996;2023-04-25T09:29:43;10.40;99.90
46976;DHT22;32724;51.094;6.996;2023-04-25T09:32:16;10.90;99.90
46976;DHT22;32724;51.094;6.996;2023-04-25T09:34:42;11.20;99.90
46976;DHT22;32724;51.094;6.996;2023-04-25T09:37:09;11.30;99.90
46976;DHT22;32724;51.094;6.996;2023-04-25T09:39:35;10.90;99.90
46976;DHT22;32724;51.094;6.996;2023-04-25T09:42:02;10.90;99.90
46976;DHT22;32724;51.094;6.996;2023-04-25T09:44:28;10.60;99.90
46976;DHT22;32724;51.094;6.996;2023-04-25T09:46:53;10.90;99.90
46976;DHT22;32724;51.094;6.996;2023-04-25T09:49:22;11.20;99.90
46976;DHT22;32724;51.094;6.996;2023-04-25T09:51:54;11.40;99.90
46976;DHT22;32724;51.094;6.996;2023-04-25T09:54:19;11.50;99.90
46976;DHT22;32724;51.094;6.996;2023-04-25T09:56:45;12.00;99.90
46976;DHT22;32724;51.094;6.996;2023-04-25T09:59:12;12.30;99.90
46976;DHT22;32724;51.094;6.996;2023-04-25T10:01:39;12.20;98.10
46976;DHT22;32724;51.094;6.996;2023-04-25T10:04:05;12.00;98.00
46976;DHT22;32724;51.094;6.996;2023-04-25T10:06:31;11.90;97.70
46976;DHT22;32724;51.094;6.996;2023-04-25T10:08:59;11.80;98.20
46976;DHT22;32724;51.094;6.996;2023-04-25T10:11:25;11.90;98.60
46976;DHT22;32724;51.094;6.996;2023-04-25T10:13:51;12.10;98.40
46976;DHT22;32724;51.094;6.996;2023-04-25T10:16:17;12.40;99.40
46976;DHT22;32724;51.094;6.996;2023-04-25T10:18:43;12.40;99.60
46976;DHT22;32724;51.094;6.996;2023-04-25T10:21:09;12.30;99.30
46976;DHT22;32724;51.094;6.996;2023-04-25T10:23:35;12.00;98.70
46976;DHT22;32724;51.094;6.996;2023-04-25T10:26:01;11.40;99.00
46976;DHT22;32724;51.094;6.996;2023-04-25T10:28:27;11.10;99.90
46976;DHT22;32724;51.094;6.996;2023-04-25T10:30:57;10.90;99.00
46976;DHT22;32724;51.094;6.996;2023-04-25T10:33:29;10.80;99.20
46976;DHT22;32724;51.094;6.996;2023-04-25T10:35:57;10.60;99.90
46976;DHT22;32724;51.094;6.996;2023-04-25T10:38:23;10.30;99.90
46976;DHT22;32724;51.094;6.996;2023-04-25T10:41:04;10.20;99.90
46976;DHT22;32724;51.094;6.996;2023-04-25T10:43:34;10.10;99.90
46976;DHT22;32724;51.094;6.996;2023-04-25T10:46:00;10.40;99.90
46976;DHT22;32724;51.094;6.996;2023-04-25T10:48:26;11.00;99.90
46976;DHT22;32724;51.094;6.996;2023-04-25T10:51:11;11.60;99.90
46976;DHT22;32724;51.094;6.996;2023-04-25T10:53:37;12.00;98.70
46976;DHT22;32724;51.094;6.996;2023-04-25T10:56:09;12.00;94.90
46976;DHT22;32724;51.094;6.996;2023-04-25T10:58:35;12.00;95.50
46976;DHT22;32724;51.094;6.996;2023-04-25T11:01:01;12.00;96.00
46976;DHT22;32724;51.094;6.996;2023-04-25T11:03:26;11.60;95.10
46976;DHT22;32724;51.094;6.996;2023-04-25T11:05:52;11.40;95.80
46976;DHT22;32724;51.094;6.996;2023-04-25T11:08:17;11.50;96.90
46976;DHT22;32724;51.094;6.996;2023-04-25T11:10:48;11.70;97.50
46976;DHT22;32724;51.094;6.996;2023-04-25T11:13:13;11.70;94.30
46976;DHT22;32724;51.094;6.996;2023-04-25T11:15:39;11.80;93.70
46976;DHT22;32724;51.094;6.996;2023-04-25T11:18:05;11.90;94.20
46976;DHT22;32724;51.094;6.996;2023-04-25T11:20:31;12.10;92.90
46976;DHT22;32724;51.094;6.996;2023-04-25T11:22:57;12.40;92.60
46976;DHT22;32724;51.094;6.996;2023-04-25T11:25:22;12.40;91.80
46976;DHT22;32724;51.094;6.996;2023-04-25T11:30:17;12.50;91.30
46976;DHT22;32724;51.094;6.996;2023-04-25T11:32:42;12.70;92.60
46976;DHT22;32724;51.094;6.996;2023-04-25T11:35:09;12.60;89.10
46976;DHT22;32724;51.094;6.996;2023-04-25T11:37:34;12.10;90.50
46976;DHT22;32724;51.094;6.996;2023-04-25T11:40:00;11.90;90.20
46976;DHT22;32724;51.094;6.996;2023-04-25T11:42:25;11.90;90.60
46976;DHT22;32724;51.094;6.996;2023-04-25T11:44:51;12.10;88.60
46976;DHT22;32724;51.094;6.996;2023-04-25T11:47:17;12.00;88.50
46976;DHT22;32724;51.094;6.996;2023-04-25T11:49:42;12.10;85.00
46976;DHT22;32724;51.094;6.996;2023-04-25T11:52:08;12.20;86.90
46976;DHT22;32724;51.094;6.996;2023-04-25T11:54:37;12.60;91.80
46976;DHT22;32724;51.094;6.996;2023-04-25T11:57:02;12.80;88.40
46976;DHT22;32724;51.094;6.996;2023-04-25T11:59:28;12.90;89.00
46976;DHT22;32724;51.094;6.996;2023-04-25T12:01:54;13.00;86.40
46976;DHT22;32724;51.094;6.996;2023-04-25T12:04:20;12.70;81.80
46976;DHT22;32724;51.094;6.996;2023-04-25T12:06:49;12.50;87.20
46976;DHT22;32724;51.094;6.996;2023-04-25T12:09:16;12.60;88.20
46976;DHT22;32724;51.094;6.996;2023-04-25T12:12:01;12.90;87.00
46976;DHT22;32724;51.094;6.996;2023-04-25T12:14:28;13.10;90.90
46976;DHT22;32724;51.094;6.996;2023-04-25T12:16:55;13.30;89.60
46976;DHT22;32724;51.094;6.996;2023-04-25T12:19:21;12.90;86.50
46976;DHT22;32724;51.094;6.996;2023-04-25T12:21:47;12.80;88.90
46976;DHT22;32724;51.094;6.996;2023-04-25T12:24:14;13.10;90.10
46976;DHT22;32724;51.094;6.996;2023-04-25T12:26:50;13.10;86.20
46976;DHT22;32724;51.094;6.996;2023-04-25T12:29:16;13.50;90.70
46976;DHT22;32724;51.094;6.996;2023-04-25T12:31:42;13.70;90.00
46976;DHT22;32724;51.094;6.996;2023-04-25T12:34:08;13.50;84.00
46976;DHT22;32724;51.094;6.996;2023-04-25T12:36:33;13.40;88.30
46976;DHT22;32724;51.094;6.996;2023-04-25T12:38:58;13.00;90.20
46976;DHT22;32724;51.094;6.996;2023-04-25T12:41:29;12.80;89.00
46976;DHT22;32724;51.094;6.996;2023-04-25T12:43:55;12.40;90.80
46976;DHT22;32724;51.094;6.996;2023-04-25T12:46:20;12.00;90.50
46976;DHT22;32724;51.094;6.996;2023-04-25T12:48:46;11.70;90.30
46976;DHT22;32724;51.094;6.996;2023-04-25T12:51:11;11.60;90.60
46976;DHT22;32724;51.094;6.996;2023-04-25T12:53:37;11.60;91.00
46976;DHT22;32724;51.094;6.996;2023-04-25T12:56:04;11.30;91.30
46976;DHT22;32724;51.094;6.996;2023-04-25T12:58:29;11.30;91.90
46976;DHT22;32724;51.094;6.996;2023-04-25T13:00:55;11.00;92.60
46976;DHT22;32724;51.094;6.996;2023-04-25T13:03:20;10.90;94.90
46976;DHT22;32724;51.094;6.996;2023-04-25T13:05:46;10.70;96.90
46976;DHT22;32724;51.094;6.996;2023-04-25T13:08:12;10.50;98.00
46976;DHT22;32724;51.094;6.996;2023-04-25T13:10:37;10.00;99.00
46976;DHT22;32724;51.094;6.996;2023-04-25T13:13:04;9.80;99.90
46976;DHT22;32724;51.094;6.996;2023-04-25T13:15:29;9.70;99.90
46976;DHT22;32724;51.094;6.996;2023-04-25T13:17:55;9.40;99.90
46976;DHT22;32724;51.094;6.996;2023-04-25T13:20:21;9.30;99.90
46976;DHT22;32724;51.094;6.996;2023-04-25T13:22:47;9.30;99.90
46976;DHT22;32724;51.094;6.996;2023-04-25T13:25:13;9.40;99.90
46976;DHT22;32724;51.094;6.996;2023-04-25T13:27:38;9.50;99.90
46976;DHT22;32724;51.094;6.996;2023-04-25T13:30:05;9.60;99.90
46976;DHT22;32724;51.094;6.996;2023-04-25T13:32:34;9.70;99.90
46976;DHT22;32724;51.094;6.996;2023-04-25T13:35:01;9.90;99.90
46976;DHT22;32724;51.094;6.996;2023-04-25T13:37:27;9.90;99.90
46976;DHT22;32724;51.094;6.996;2023-04-25T13:39:54;10.10;99.90
46976;DHT22;32724;51.094;6.996;2023-04-25T13:42:20;10.40;99.90
46976;DHT22;32724;51.094;6.996;2023-04-25T13:44:46;10.70;99.90
46976;DHT22;32724;51.094;6.996;2023-04-25T13:47:11;10.90;99.90
46976;DHT22;32724;51.094;6.996;2023-04-25T13:49:37;11.00;99.90
46976;DHT22;32724;51.094;6.996;2023-04-25T13:52:02;11.30;98.60
46976;DHT22;32724;51.094;6.996;2023-04-25T13:54:28;11.10;98.80
46976;DHT22;32724;51.094;6.996;2023-04-25T13:56:53;10.80;99.90
46976;DHT22;32724;51.094;6.996;2023-04-25T13:59:23;11.00;99.90
46976;DHT22;32724;51.094;6.996;2023-04-25T14:01:49;11.10;98.00
46976;DHT22;32724;51.094;6.996;2023-04-25T14:04:15;11.40;98.10
46976;DHT22;32724;51.094;6.996;2023-04-25T14:06:40;11.40;97.40
46976;DHT22;32724;51.094;6.996;2023-04-25T14:09:06;11.60;96.60
46976;DHT22;32724;51.094;6.996;2023-04-25T14:11:36;11.50;97.00
46976;DHT22;32724;51.094;6.996;2023-04-25T14:14:01;11.60;97.80
46976;DHT22;32724;51.094;6.996;2023-04-25T14:16:27;12.00;98.30
46976;DHT22;32724;51.094;6.996;2023-04-25T14:18:52;11.90;95.50
46976;DHT22;32724;51.094;6.996;2023-04-25T14:21:19;11.80;94.60
46976;DHT22;32724;51.094;6.996;2023-04-25T14:23:46;11.90;95.10
46976;DHT22;32724;51.094;6.996;2023-04-25T14:26:12;11.90;93.90
46976;DHT22;32724;51.094;6.996;2023-04-25T14:28:38;12.00;94.50
46976;DHT22;32724;51.094;6.996;2023-04-25T14:31:03;11.90;93.80
46976;DHT22;32724;51.094;6.996;2023-04-25T14:33:29;12.10;93.90
46976;DHT22;32724;51.094;6.996;2023-04-25T14:35:55;11.90;92.90
46976;DHT22;32724;51.094;6.996;2023-04-25T14:38:21;11.90;93.70
46976;DHT22;32724;51.094;6.996;2023-04-25T14:40:51;11.70;92.00
46976;DHT22;32724;51.094;6.996;2023-04-25T14:43:17;11.50;92.60
46976;DHT22;32724;51.094;6.996;2023-04-25T14:45:42;11.40;93.00
46976;DHT22;32724;51.094;6.996;2023-04-25T14:48:08;11.60;93.10
46976;DHT22;32724;51.094;6.996;2023-04-25T14:50:33;11.80;96.30
46976;DHT22;32724;51.094;6.996;2023-04-25T14:52:59;11.50;97.60
46976;DHT22;32724;51.094;6.996;2023-04-25T14:55:28;11.10;98.30
46976;DHT22;32724;51.094;6.996;2023-04-25T14:57:54;10.70;99.30
46976;DHT22;32724;51.094;6.996;2023-04-25T15:00:21;10.70;99.90
46976;DHT22;32724;51.094;6.996;2023-04-25T15:02:48;10.60;99.80
46976;DHT22;32724;51.094;6.996;2023-04-25T15:05:13;10.70;99.90
46976;DHT22;32724;51.094;6.996;2023-04-25T15:07:39;10.70;99.60
46976;DHT22;32724;51.094;6.996;2023-04-25T15:10:06;10.90;99.40
46976;DHT22;32724;51.094;6.996;2023-04-25T15:12:36;11.10;99.90
46976;DHT22;32724;51.094;6.996;2023-04-25T15:15:02;11.20;99.40
46976;DHT22;32724;51.094;6.996;2023-04-25T15:17:27;11.10;99.00
46976;DHT22;32724;51.094;6.996;2023-04-25T15:19:56;11.00;98.80
46976;DHT22;32724;51.094;6.996;2023-04-25T15:22:21;11.00;99.10
46976;DHT22;32724;51.094;6.996;2023-04-25T15:24:47;11.10;99.40
46976;DHT22;32724;51.094;6.996;2023-04-25T15:27:12;11.10;98.90
46976;DHT22;32724;51.094;6.996;2023-04-25T15:29:38;11.20;98.90
46976;DHT22;32724;51.094;6.996;2023-04-25T15:32:03;11.20;98.80
46976;DHT22;32724;51.094;6.996;2023-04-25T15:34:29;11.00;99.70